createdAt,value
2023-01-27T00:00:15.597Z,72.69
2023-01-27T00:03:02.580Z,72.34
2023-01-27T00:05:49.695Z,72.17
2023-01-27T00:08:36.587Z,72.23
2023-01-27T00:11:42.236Z,72.47
2023-01-27T00:14:29.150Z,72.22
2023-01-27T00:17:15.889Z,72.37
2023-01-27T00:20:04.106Z,72.73
2023-01-27T00:23:09.645Z,72.93
2023-01-27T00:25:58.712Z,72.49
2023-01-27T00:28:46.917Z,72.79
2023-01-27T00:31:52.553Z,72.44
2023-01-27T00:34:41.423Z,71.88
2023-01-27T00:37:28.206Z,72.50
2023-01-27T00:40:16.617Z,72.66
2023-01-27T00:43:03.457Z,72.04
2023-01-27T00:45:51.184Z,72.27
2023-01-27T00:48:38.095Z,72.79
2023-01-27T00:51:24.917Z,72.47
2023-01-27T00:54:12.064Z,72.67
2023-01-27T00:56:58.944Z,72.46
2023-01-27T00:59:45.924Z,72.15
2023-01-27T01:02:33.170Z,72.19
2023-01-27T01:05:20.003Z,72.69
2023-01-27T01:08:06.812Z,72.50
2023-01-27T01:10:53.998Z,72.59
2023-01-27T01:13:41.806Z,72.36
2023-01-27T01:16:28.686Z,72.29
2023-01-27T01:19:15.518Z,72.40
2023-01-27T01:22:04.274Z,72.74
2023-01-27T01:24:51.773Z,72.84
2023-01-27T01:27:38.746Z,72.68
2023-01-27T01:30:27.370Z,72.20
2023-01-27T01:33:14.244Z,72.29
2023-01-27T01:36:08.953Z,72.64
2023-01-27T01:38:58.624Z,72.50
2023-01-27T01:41:45.394Z,72.59
2023-01-27T01:44:32.370Z,72.71
2023-01-27T01:47:19.346Z,72.57
2023-01-27T01:50:06.407Z,72.22
2023-01-27T01:52:54.432Z,72.77
2023-01-27T01:55:41.592Z,72.35
2023-01-27T01:58:28.455Z,72.13
2023-01-27T02:01:16.868Z,72.11
2023-01-27T02:04:05.772Z,72.58
2023-01-27T02:07:15.530Z,73.14
2023-01-27T02:10:02.488Z,72.85
2023-01-27T02:12:49.442Z,72.11
2023-01-27T02:15:36.508Z,72.50
2023-01-27T02:18:23.416Z,72.56
2023-01-27T02:21:10.350Z,72.78
2023-01-27T02:24:01.409Z,72.51
2023-01-27T02:26:48.940Z,72.49
2023-01-27T02:29:35.788Z,72.87
2023-01-27T02:32:26.550Z,72.48
2023-01-27T02:35:17.752Z,72.76
2023-01-27T02:38:06.306Z,72.92
2023-01-27T02:40:55.253Z,72.95
2023-01-27T02:43:42.511Z,72.66
2023-01-27T02:46:29.564Z,72.84
2023-01-27T02:49:16.396Z,72.59
2023-01-27T02:52:03.343Z,73.01
2023-01-27T02:54:50.119Z,72.87
2023-01-27T02:57:37.045Z,72.65
2023-01-27T03:00:23.829Z,72.46
2023-01-27T03:03:10.636Z,72.49
2023-01-27T03:05:57.511Z,73.12
2023-01-27T03:08:44.451Z,72.75
2023-01-27T03:11:49.952Z,72.69
2023-01-27T03:14:55.305Z,72.69
2023-01-27T03:18:00.727Z,72.66
2023-01-27T03:20:48.757Z,73.15
2023-01-27T03:23:35.695Z,72.67
2023-01-27T03:26:22.503Z,73.02
2023-01-27T03:29:28.024Z,72.96
2023-01-27T03:32:14.864Z,73.12
2023-01-27T03:35:02.169Z,72.80
2023-01-27T03:38:08.631Z,72.55
2023-01-27T03:41:14.115Z,72.89
2023-01-27T03:44:19.743Z,73.17
2023-01-27T03:47:07.258Z,72.97
2023-01-27T03:49:54.097Z,72.72
2023-01-27T03:52:41.421Z,72.96
2023-01-27T03:55:28.689Z,72.69
2023-01-27T03:58:33.534Z,72.58
2023-01-27T04:01:22.684Z,72.62
2023-01-27T04:04:29.233Z,72.93
2023-01-27T04:07:20.044Z,73.21
2023-01-27T04:10:07.128Z,73.20
2023-01-27T04:12:53.908Z,73.00
2023-01-27T04:15:40.717Z,72.85
2023-01-27T04:18:27.489Z,73.10
2023-01-27T04:21:14.272Z,73.28
2023-01-27T04:24:01.833Z,72.93
2023-01-27T04:27:09.184Z,72.91
2023-01-27T04:29:55.972Z,72.93
2023-01-27T04:32:42.861Z,72.76
2023-01-27T04:35:38.437Z,73.36
2023-01-27T04:38:25.922Z,72.97
2023-01-27T04:41:12.725Z,72.84
2023-01-27T04:43:59.637Z,72.98
2023-01-27T04:46:46.755Z,72.93
2023-01-27T04:49:33.488Z,73.31
2023-01-27T04:52:23.234Z,73.37
2023-01-27T04:55:10.369Z,73.31
2023-01-27T04:57:57.196Z,73.70
2023-01-27T05:00:44.894Z,72.97
2023-01-27T05:03:31.811Z,72.89
2023-01-27T05:06:18.788Z,72.91
2023-01-27T05:09:05.585Z,72.82
2023-01-27T05:11:52.422Z,73.18
2023-01-27T05:14:39.188Z,73.27
2023-01-27T05:17:27.868Z,72.79
2023-01-27T05:20:14.669Z,72.88
2023-01-27T05:23:20.199Z,73.33
2023-01-27T05:26:15.426Z,72.51
2023-01-27T05:29:04.008Z,73.03
2023-01-27T05:31:50.858Z,73.50
2023-01-27T05:34:37.725Z,73.21
2023-01-27T05:37:24.580Z,73.27
2023-01-27T05:40:12.121Z,73.26
2023-01-27T05:42:58.983Z,73.14
2023-01-27T05:45:45.765Z,72.98
2023-01-27T05:48:37.317Z,72.84
2023-01-27T05:51:26.077Z,73.02
2023-01-27T05:54:12.863Z,73.18
2023-01-27T05:56:59.688Z,72.78
2023-01-27T05:59:46.485Z,73.42
2023-01-27T06:02:33.275Z,73.63
2023-01-27T06:05:20.065Z,73.22
2023-01-27T06:08:06.877Z,73.36
2023-01-27T06:10:54.068Z,73.19
2023-01-27T06:13:41.062Z,73.31
2023-01-27T06:16:27.934Z,73.12
2023-01-27T06:19:14.741Z,73.26
2023-01-27T06:22:02.993Z,72.83
2023-01-27T06:24:49.784Z,73.13
2023-01-27T06:27:36.552Z,73.05
2023-01-27T06:30:24.159Z,73.00
2023-01-27T06:33:13.242Z,73.64
2023-01-27T06:36:06.963Z,72.88
2023-01-27T06:38:53.725Z,72.97
2023-01-27T06:41:40.620Z,73.44
2023-01-27T06:44:27.423Z,73.23
2023-01-27T06:47:14.242Z,73.59
2023-01-27T06:50:01.022Z,73.05
2023-01-27T06:52:47.810Z,73.32
2023-01-27T06:55:41.499Z,73.38
2023-01-27T06:58:28.836Z,73.30
2023-01-27T07:01:15.732Z,73.31
2023-01-27T07:04:02.707Z,73.25
2023-01-27T07:06:51.949Z,73.47
2023-01-27T07:09:51.706Z,73.77
2023-01-27T07:12:39.659Z,73.27
2023-01-27T07:15:26.629Z,73.24
2023-01-27T07:18:14.270Z,72.96
2023-01-27T07:21:04.223Z,73.13
2023-01-27T07:23:51.019Z,73.30
2023-01-27T07:26:38.107Z,73.66
2023-01-27T07:29:25.101Z,73.43
2023-01-27T07:32:11.957Z,73.09
2023-01-27T07:35:03.476Z,73.39
2023-01-27T07:37:50.564Z,73.85
2023-01-27T07:40:37.361Z,73.01
2023-01-27T07:43:24.869Z,73.40
2023-01-27T07:46:13.642Z,73.42
2023-01-27T07:49:00.498Z,73.71
2023-01-27T07:51:47.424Z,73.57
2023-01-27T07:54:34.228Z,73.00
2023-01-27T07:57:20.967Z,73.48
2023-01-27T08:00:08.307Z,72.94
2023-01-27T08:02:56.234Z,73.22
2023-01-27T08:05:43.798Z,73.36
2023-01-27T08:08:30.540Z,73.81
2023-01-27T08:11:17.440Z,73.24
2023-01-27T08:14:04.265Z,73.57
2023-01-27T08:16:51.141Z,73.85
2023-01-27T08:19:38.034Z,73.54
2023-01-27T08:22:24.921Z,73.96
2023-01-27T08:25:11.720Z,73.66
2023-01-27T08:27:58.550Z,73.34
2023-01-27T08:30:45.779Z,73.50
2023-01-27T08:33:32.611Z,73.80
2023-01-27T08:36:23.471Z,73.33
2023-01-27T08:39:11.119Z,73.47
2023-01-27T08:41:57.919Z,73.65
2023-01-27T08:44:44.711Z,73.58
2023-01-27T08:47:34.558Z,73.63
2023-01-27T08:50:21.555Z,73.62
2023-01-27T08:53:08.447Z,73.10
2023-01-27T08:56:04.141Z,73.62
2023-01-27T08:58:52.386Z,73.60
2023-01-27T09:01:41.609Z,73.58
2023-01-27T09:04:31.473Z,73.79
2023-01-27T09:07:18.669Z,73.22
2023-01-27T09:10:19.724Z,73.36
2023-01-27T09:13:07.767Z,73.58
2023-01-27T09:15:54.649Z,73.61
2023-01-27T09:18:42.428Z,74.23
2023-01-27T09:21:29.582Z,74.03
2023-01-27T09:24:17.881Z,73.72
2023-01-27T09:27:05.123Z,73.72
2023-01-27T09:29:52.094Z,73.89
2023-01-27T09:32:39.051Z,73.62
2023-01-27T09:35:27.478Z,73.75
2023-01-27T09:38:17.903Z,73.70
2023-01-27T09:41:49.843Z,73.54
2023-01-27T09:44:52.144Z,73.33
2023-01-27T09:47:49.284Z,73.60
2023-01-27T09:50:44.960Z,73.21
2023-01-27T09:53:41.887Z,73.51
2023-01-27T09:56:55.442Z,73.37
2023-01-27T10:00:20.283Z,73.97
2023-01-27T10:03:34.717Z,73.58
2023-01-27T10:06:40.605Z,73.73
2023-01-27T10:09:50.985Z,73.63
2023-01-27T10:13:00.756Z,73.93
2023-01-27T10:15:53.925Z,73.61
2023-01-27T10:18:52.177Z,73.63
2023-01-27T10:21:54.125Z,73.82
2023-01-27T10:24:59.993Z,74.25
2023-01-27T10:27:59.676Z,73.51
2023-01-27T10:30:55.338Z,73.63
2023-01-27T10:33:45.121Z,73.80
2023-01-27T10:36:44.330Z,73.73
2023-01-27T10:39:30.984Z,73.94
2023-01-27T10:42:41.825Z,73.43
2023-01-27T10:45:41.667Z,74.03
2023-01-27T10:49:04.775Z,73.66
2023-01-27T10:52:02.413Z,73.40
2023-01-27T10:55:17.682Z,73.58
2023-01-27T10:58:28.135Z,73.98
2023-01-27T11:01:21.516Z,73.82
2023-01-27T11:04:16.404Z,73.35
2023-01-27T11:07:08.323Z,73.88
2023-01-27T11:10:08.464Z,74.22
2023-01-27T11:12:56.165Z,74.19
2023-01-27T11:15:42.980Z,73.97
2023-01-27T11:18:35.156Z,74.30
2023-01-27T11:21:25.815Z,74.00
2023-01-27T11:24:27.324Z,73.80
2023-01-27T11:27:22.842Z,74.10
2023-01-27T11:30:16.746Z,74.08
2023-01-27T11:33:24.088Z,74.10
2023-01-27T11:36:12.255Z,73.50
2023-01-27T11:39:01.526Z,74.35
2023-01-27T11:41:49.834Z,74.14
2023-01-27T11:44:36.788Z,74.00
2023-01-27T11:47:36.800Z,74.09
2023-01-27T11:50:28.971Z,73.71
2023-01-27T11:53:39.578Z,73.71
2023-01-27T11:56:27.342Z,74.19
2023-01-27T11:59:26.591Z,74.06
2023-01-27T12:02:32.078Z,74.01
2023-01-27T12:05:24.968Z,73.81
2023-01-27T12:08:13.870Z,73.74
2023-01-27T12:11:23.705Z,73.76
2023-01-27T12:14:13.384Z,73.98
2023-01-27T12:17:02.178Z,73.92
2023-01-27T12:19:49.139Z,73.90
2023-01-27T12:22:40.634Z,74.18
2023-01-27T12:25:43.993Z,74.37
2023-01-27T12:28:42.850Z,73.67
2023-01-27T12:31:31.520Z,73.77
2023-01-27T12:34:26.308Z,74.16
2023-01-27T12:37:22.459Z,73.95
2023-01-27T12:40:19.388Z,74.41
2023-01-27T12:43:13.341Z,73.20
2023-01-27T12:46:22.106Z,73.76
2023-01-27T12:49:14.917Z,73.80
2023-01-27T12:52:04.898Z,74.05
2023-01-27T12:54:54.077Z,74.09
2023-01-27T12:57:43.322Z,73.53
2023-01-27T13:00:30.707Z,74.07
2023-01-27T13:03:22.057Z,74.06
2023-01-27T13:06:14.707Z,73.97
2023-01-27T13:09:02.540Z,73.73
2023-01-27T13:11:49.356Z,74.27
2023-01-27T13:14:40.769Z,73.95
2023-01-27T13:17:30.238Z,73.59
2023-01-27T13:20:39.135Z,73.33
2023-01-27T13:23:32.803Z,73.21
2023-01-27T13:26:32.030Z,73.56
2023-01-27T13:29:23.449Z,73.51
2023-01-27T13:32:27.769Z,73.47
2023-01-27T13:35:46.620Z,73.35
2023-01-27T13:38:44.765Z,73.46
2023-01-27T13:41:48.907Z,73.63
2023-01-27T13:44:39.670Z,73.91
2023-01-27T13:47:32.634Z,73.76
2023-01-27T13:50:27.897Z,73.63
2023-01-27T13:53:18.161Z,74.00
2023-01-27T13:56:18.235Z,73.81
2023-01-27T13:59:23.616Z,73.32
2023-01-27T14:02:54.397Z,73.74
2023-01-27T14:05:53.587Z,73.20
2023-01-27T14:09:29.686Z,73.93
2023-01-27T14:12:22.785Z,73.62
2023-01-27T14:15:26.117Z,73.29
2023-01-27T14:18:30.152Z,73.31
2023-01-27T14:21:34.678Z,73.81
2023-01-27T14:24:40.429Z,73.78
2023-01-27T14:27:45.073Z,73.73
2023-01-27T14:30:40.680Z,73.38
2023-01-27T14:33:53.510Z,73.21
2023-01-27T14:36:49.364Z,73.50
2023-01-27T14:40:08.971Z,73.55
2023-01-27T14:43:10.138Z,73.10
2023-01-27T14:46:17.513Z,73.60
2023-01-27T14:49:18.571Z,73.26
2023-01-27T14:52:11.627Z,73.71
2023-01-27T14:55:12.368Z,73.56
2023-01-27T14:58:24.449Z,73.24
2023-01-27T15:01:20.397Z,73.78
2023-01-27T15:04:25.669Z,73.16
2023-01-27T15:07:36.693Z,73.14
2023-01-27T15:10:28.866Z,73.14
2023-01-27T15:13:24.094Z,73.16
2023-01-27T15:16:20.320Z,73.08
2023-01-27T15:19:50.784Z,73.83
2023-01-27T15:22:55.900Z,73.07
2023-01-27T15:26:05.532Z,73.76
2023-01-27T15:28:55.847Z,73.47
2023-01-27T15:31:45.201Z,73.28
2023-01-27T15:34:32.147Z,73.88
2023-01-27T15:37:24.465Z,73.11
2023-01-27T15:40:15.313Z,73.60
2023-01-27T15:43:07.324Z,73.24
2023-01-27T15:45:55.740Z,73.22
2023-01-27T15:48:42.656Z,72.95
2023-01-27T15:51:31.744Z,73.57
2023-01-27T15:54:29.605Z,73.55
2023-01-27T15:57:29.725Z,73.48
2023-01-27T16:00:16.669Z,73.31
2023-01-27T16:03:05.856Z,72.96
2023-01-27T16:06:15.384Z,72.95
2023-01-27T16:09:06.695Z,73.56
2023-01-27T16:12:02.469Z,73.86
2023-01-27T16:15:10.441Z,73.23
2023-01-27T16:18:11.615Z,73.00
2023-01-27T16:21:02.956Z,72.90
2023-01-27T16:23:56.466Z,73.42
2023-01-27T16:26:51.756Z,73.30
2023-01-27T16:29:42.519Z,73.31
2023-01-27T16:32:37.545Z,72.76
2023-01-27T16:35:24.534Z,73.30
2023-01-27T16:38:26.171Z,73.17
2023-01-27T16:41:37.798Z,73.50
2023-01-27T16:44:29.805Z,72.55
2023-01-27T16:47:40.616Z,73.34
2023-01-27T16:50:38.838Z,72.86
2023-01-27T16:53:26.100Z,73.17
2023-01-27T16:56:32.974Z,73.34
2023-01-27T16:59:26.751Z,72.97
2023-01-27T17:02:18.517Z,73.14
2023-01-27T17:05:13.904Z,73.24
2023-01-27T17:08:03.378Z,73.77
2023-01-27T17:10:51.127Z,73.15
2023-01-27T17:13:46.375Z,73.16
2023-01-27T17:16:45.077Z,73.69
2023-01-27T17:19:36.184Z,72.97
2023-01-27T17:22:25.470Z,73.55
2023-01-27T17:25:14.813Z,73.29
2023-01-27T17:28:05.173Z,73.32
2023-01-27T17:30:52.743Z,73.14
2023-01-27T17:33:40.208Z,72.78
2023-01-27T17:36:27.234Z,73.46
2023-01-27T17:39:25.561Z,73.21
2023-01-27T17:42:17.369Z,72.71
2023-01-27T17:45:33.534Z,73.35
2023-01-27T17:48:20.383Z,72.62
2023-01-27T17:51:08.891Z,72.80
2023-01-27T17:53:56.287Z,72.52
2023-01-27T17:56:43.293Z,72.31
2023-01-27T17:59:30.242Z,72.39
2023-01-27T18:02:24.018Z,72.81
2023-01-27T18:05:17.403Z,72.92
2023-01-27T18:08:05.134Z,72.39
2023-01-27T18:10:52.001Z,72.42
2023-01-27T18:13:40.540Z,72.70
2023-01-27T18:16:27.494Z,72.18
2023-01-27T18:19:23.527Z,72.92
2023-01-27T18:22:16.224Z,72.70
2023-01-27T18:25:05.978Z,72.57
2023-01-27T18:27:53.880Z,72.60
2023-01-27T18:30:49.570Z,72.09
2023-01-27T18:33:36.757Z,72.43
2023-01-27T18:36:25.142Z,72.11
2023-01-27T18:39:38.079Z,72.55
2023-01-27T18:42:26.277Z,73.00
2023-01-27T18:45:13.454Z,72.30
2023-01-27T18:48:01.032Z,72.51
2023-01-27T18:50:47.919Z,72.49
2023-01-27T18:53:34.695Z,72.57
2023-01-27T18:56:21.498Z,72.72
2023-01-27T18:59:13.342Z,72.53
2023-01-27T19:02:00.646Z,72.10
2023-01-27T19:04:47.487Z,72.87
2023-01-27T19:07:37.037Z,72.54
2023-01-27T19:10:28.148Z,72.15
2023-01-27T19:13:19.372Z,72.41
2023-01-27T19:16:11.202Z,72.40
2023-01-27T19:18:58.013Z,71.92
2023-01-27T19:21:44.825Z,72.07
2023-01-27T19:24:32.829Z,72.36
2023-01-27T19:27:19.823Z,72.69
2023-01-27T19:30:20.725Z,72.11
2023-01-27T19:33:21.935Z,72.42
2023-01-27T19:36:14.749Z,71.83
2023-01-27T19:39:12.226Z,71.97
2023-01-27T19:41:59.256Z,71.89
2023-01-27T19:44:46.032Z,72.20
2023-01-27T19:47:32.840Z,71.93
2023-01-27T19:50:25.252Z,72.06
2023-01-27T19:53:13.187Z,72.34
2023-01-27T19:55:59.947Z,72.00
2023-01-27T19:58:51.431Z,72.14
2023-01-27T20:01:38.530Z,72.34
2023-01-27T20:04:28.057Z,72.15
2023-01-27T20:07:14.890Z,72.59
2023-01-27T20:10:01.671Z,72.46
2023-01-27T20:13:03.127Z,72.61
2023-01-27T20:15:50.715Z,72.08
2023-01-27T20:18:37.463Z,71.85
2023-01-27T20:21:26.815Z,72.35
2023-01-27T20:24:17.307Z,71.80
2023-01-27T20:27:04.271Z,72.02
2023-01-27T20:29:52.312Z,72.16
2023-01-27T20:32:39.166Z,72.07
2023-01-27T20:35:26.310Z,72.65
2023-01-27T20:38:13.168Z,71.83
2023-01-27T20:41:08.587Z,72.09
2023-01-27T20:43:56.938Z,72.22
2023-01-27T20:46:46.962Z,72.22
2023-01-27T20:49:34.617Z,72.24
2023-01-27T20:52:21.556Z,72.03
2023-01-27T20:55:09.526Z,72.58
2023-01-27T20:57:56.474Z,72.46
2023-01-27T21:00:44.102Z,72.17
2023-01-27T21:03:30.889Z,72.21
2023-01-27T21:06:19.839Z,72.22
2023-01-27T21:09:06.700Z,72.30
2023-01-27T21:11:53.731Z,72.21
2023-01-27T21:14:40.518Z,72.01
2023-01-27T21:17:27.299Z,72.67
2023-01-27T21:20:14.150Z,71.87
2023-01-27T21:23:00.948Z,72.65
2023-01-27T21:25:48.474Z,72.08
2023-01-27T21:28:35.391Z,72.25
2023-01-27T21:31:24.302Z,72.11
2023-01-27T21:34:11.282Z,72.17
2023-01-27T21:36:58.098Z,72.57
2023-01-27T21:39:44.883Z,72.20
2023-01-27T21:42:50.524Z,72.73
2023-01-27T21:45:37.406Z,72.59
2023-01-27T21:48:24.181Z,71.85
2023-01-27T21:51:11.001Z,72.74
2023-01-27T21:53:58.034Z,71.75
2023-01-27T21:56:44.834Z,72.25
2023-01-27T21:59:34.192Z,72.05
2023-01-27T22:02:21.014Z,72.07
2023-01-27T22:05:11.467Z,72.20
2023-01-27T22:07:59.176Z,72.13
2023-01-27T22:10:45.996Z,72.25
2023-01-27T22:13:33.831Z,72.93
2023-01-27T22:16:25.895Z,72.62
2023-01-27T22:19:12.707Z,71.70
2023-01-27T22:21:59.641Z,72.26
2023-01-27T22:24:46.436Z,72.27
2023-01-27T22:27:33.278Z,72.40
2023-01-27T22:30:20.455Z,72.30
2023-01-27T22:33:07.294Z,72.60
2023-01-27T22:36:04.426Z,72.36
2023-01-27T22:38:51.674Z,72.17
2023-01-27T22:41:38.512Z,72.16
2023-01-27T22:44:25.333Z,71.90
2023-01-27T22:47:12.157Z,72.23
2023-01-27T22:49:58.960Z,71.93
2023-01-27T22:52:45.760Z,72.04
2023-01-27T22:55:32.670Z,72.34
2023-01-27T22:58:19.548Z,71.91
2023-01-27T23:01:07.090Z,72.18
2023-01-27T23:03:53.965Z,72.54
2023-01-27T23:06:40.790Z,71.92
2023-01-27T23:09:27.601Z,72.23
2023-01-27T23:12:14.401Z,72.41
2023-01-27T23:15:02.404Z,72.34
2023-01-27T23:17:49.197Z,71.91
2023-01-27T23:20:37.755Z,72.05
2023-01-27T23:23:24.604Z,72.62
2023-01-27T23:26:11.411Z,72.48
2023-01-27T23:28:58.235Z,72.71
2023-01-27T23:31:46.902Z,72.38
2023-01-27T23:34:33.732Z,72.68
2023-01-27T23:37:20.564Z,71.93
2023-01-27T23:40:08.004Z,72.65
2023-01-27T23:42:54.806Z,72.82
2023-01-27T23:45:41.577Z,72.47
2023-01-27T23:48:28.439Z,72.19
2023-01-27T23:51:15.202Z,71.73
2023-01-27T23:54:02.983Z,72.62
2023-01-27T23:56:49.768Z,71.92
2023-01-27T23:59:36.629Z,72.74
